Melody — 3FBS7 — position and weather

sailwx.info

Track history (hours):
 
Tides and Currents Weather Stations Pressure Air Temp Water Temp Dewpoint Dewpoint Depression Visibility Wind Speed Wind Dir Waves Ship Positions

Melody

Operator: Mediterranean Shipping Company

Last reported at 2018-Feb-05 22:12 UTC. Time now 2018-Feb-19 07:47 UTC.
Position N 29°27' W 094°51'.
Warning: this ship's position is 13 days out of date.

Length 225 m; draft 11.4 m.

Type: Tanker. MMSI: 371669000.

Date/timePositionNaut miles runAvg speedWind from/ knotsBaromVisibWave heightAir tempDewpointWater temp
2018-Feb-05 22:12N 29°27' W 094°51'1 0.8
2018-Feb-05 21:25N 29°28' W 094°51'410.5
2018-Feb-05 21:00N 29°32' W 094°53'510.7
2018-Feb-05 20:30N 29°36' W 094°57'5 9.5
2018-Feb-05 20:00N 29°40' W 094°59'4 8.0
2018-Feb-05 19:30N 29°44' W 095°01'4 7.1
2018-Feb-05 19:00N 29°46' W 095°05'  
2018-Feb-02 18:44N 29°44' W 095°08'0 0.6
2018-Feb-02 18:29N 29°44' W 095°08'2 5.1
2018-Feb-02 18:00N 29°46' W 095°05'4 6.7
2018-Feb-02 17:27N 29°44' W 095°02'3 7.1
2018-Feb-02 17:00N 29°41' W 094°59'5 9.7
2018-Feb-02 16:30N 29°37' W 094°57'1211.8
2018-Feb-02 15:29N 29°26' W 094°50'21 0.4
2018-Jan-31 16:26N 29°11' W 094°34'0 0.0
2018-Jan-31 15:35N 29°11' W 094°34'0 0.0
2018-Jan-31 15:11N 29°11' W 094°34'0 0.0
2018-Jan-31 14:26N 29°11' W 094°34'0 0.0
2018-Jan-31 12:47N 29°11' W 094°34'0 0.0
2018-Jan-31 12:23N 29°11' W 094°34'0 0.0
2018-Jan-31 11:50N 29°11' W 094°34'0 0.0
2018-Jan-31 11:29N 29°11' W 094°34'0 0.0
2018-Jan-31 10:53N 29°11' W 094°34'0 0.0
2018-Jan-31 10:17N 29°11' W 094°34'0 0.0
2018-Jan-31 09:56N 29°11' W 094°34'0 0.0
2018-Jan-31 09:08N 29°11' W 094°34'0 0.0
2018-Jan-31 08:59N 29°11' W 094°34'0 0.0
2018-Jan-31 08:29N 29°11' W 094°34'0 0.0
2018-Jan-31 07:59N 29°11' W 094°34'0 0.0
2018-Jan-31 07:29N 29°11' W 094°34'0 0.0
2018-Jan-31 06:59N 29°11' W 094°34'0 0.0
2018-Jan-31 06:29N 29°11' W 094°34'0 0.0
2018-Jan-31 05:50N 29°11' W 094°34'0 0.1
2018-Jan-31 05:29N 29°11' W 094°34'0 0.0
2018-Jan-31 04:44N 29°11' W 094°34'0 0.0
2018-Jan-31 04:14N 29°11' W 094°34'0 0.0
2018-Jan-30 15:47N 29°11' W 094°34'0 0.1
2018-Jan-30 15:20N 29°11' W 094°34'0 0.1
2018-Jan-30 14:50N 29°11' W 094°34'0 0.0
2018-Jan-30 14:29N 29°11' W 094°34'0 0.0
2018-Jan-29 16:18N 29°11' W 094°34'1 3.2
2018-Jan-29 15:58N 29°11' W 094°33'4 8.4
2018-Jan-29 15:29N 29°12' W 094°28'612.9
2018-Jan-29 15:00N 29°06' W 094°25'814.9
2018-Jan-29 14:30N 28°59' W 094°25'715.0
2018-Jan-29 14:00N 28°51' W 094°25'  
Track history (hours):
 
Tides and Currents Weather Stations Pressure Air Temp Water Temp Dewpoint Dewpoint Depression Visibility Wind Speed Wind Dir Waves Ship Positions

Melody

Operator: Mediterranean Shipping Company

Last reported at 2018-Feb-05 22:12 UTC. Time now 2018-Feb-19 07:47 UTC.
Position N 29°27' W 094°51'.
Warning: this ship's position is 13 days out of date.

Length 225 m; draft 11.4 m.

Type: Tanker. MMSI: 371669000.

Date/timePositionNaut miles runAvg speedWind from/ knotsBaromVisibWave heightAir tempDewpointWater temp
2018-Feb-05 22:12N 29°27' W 094°51'1 0.8
2018-Feb-05 21:25N 29°28' W 094°51'410.5
2018-Feb-05 21:00N 29°32' W 094°53'510.7
2018-Feb-05 20:30N 29°36' W 094°57'5 9.5
2018-Feb-05 20:00N 29°40' W 094°59'4 8.0
2018-Feb-05 19:30N 29°44' W 095°01'4 7.1
2018-Feb-05 19:00N 29°46' W 095°05'  
2018-Feb-02 18:44N 29°44' W 095°08'0 0.6
2018-Feb-02 18:29N 29°44' W 095°08'2 5.1
2018-Feb-02 18:00N 29°46' W 095°05'4 6.7
2018-Feb-02 17:27N 29°44' W 095°02'3 7.1
2018-Feb-02 17:00N 29°41' W 094°59'5 9.7
2018-Feb-02 16:30N 29°37' W 094°57'1211.8
2018-Feb-02 15:29N 29°26' W 094°50'21 0.4
2018-Jan-31 16:26N 29°11' W 094°34'0 0.0
2018-Jan-31 15:35N 29°11' W 094°34'0 0.0
2018-Jan-31 15:11N 29°11' W 094°34'0 0.0
2018-Jan-31 14:26N 29°11' W 094°34'0 0.0
2018-Jan-31 12:47N 29°11' W 094°34'0 0.0
2018-Jan-31 12:23N 29°11' W 094°34'0 0.0
2018-Jan-31 11:50N 29°11' W 094°34'0 0.0
2018-Jan-31 11:29N 29°11' W 094°34'0 0.0
2018-Jan-31 10:53N 29°11' W 094°34'0 0.0
2018-Jan-31 10:17N 29°11' W 094°34'0 0.0
2018-Jan-31 09:56N 29°11' W 094°34'0 0.0
2018-Jan-31 09:08N 29°11' W 094°34'0 0.0
2018-Jan-31 08:59N 29°11' W 094°34'0 0.0
2018-Jan-31 08:29N 29°11' W 094°34'0 0.0
2018-Jan-31 07:59N 29°11' W 094°34'0 0.0
2018-Jan-31 07:29N 29°11' W 094°34'0 0.0
2018-Jan-31 06:59N 29°11' W 094°34'0 0.0
2018-Jan-31 06:29N 29°11' W 094°34'0 0.0
2018-Jan-31 05:50N 29°11' W 094°34'0 0.1
2018-Jan-31 05:29N 29°11' W 094°34'0 0.0
2018-Jan-31 04:44N 29°11' W 094°34'0 0.0
2018-Jan-31 04:14N 29°11' W 094°34'0 0.0
2018-Jan-30 15:47N 29°11' W 094°34'0 0.1
2018-Jan-30 15:20N 29°11' W 094°34'0 0.1
2018-Jan-30 14:50N 29°11' W 094°34'0 0.0
2018-Jan-30 14:29N 29°11' W 094°34'0 0.0
2018-Jan-29 16:18N 29°11' W 094°34'1 3.2
2018-Jan-29 15:58N 29°11' W 094°33'4 8.4
2018-Jan-29 15:29N 29°12' W 094°28'612.9
2018-Jan-29 15:00N 29°06' W 094°25'814.9
2018-Jan-29 14:30N 28°59' W 094°25'715.0
2018-Jan-29 14:00N 28°51' W 094°25'  

Dump ship's entire track history